M I D A S
Marine Information and Data Acquisition System
Tripno 629 of the Zeeleeuw from 2004-01-05 07:40:16 to 2004-01-05 13:56:09
Back to CruiseResearch ActivitiesStationsMapUnderway DataData graphs

EquipmentUnitsComments
TimeDGPSUTC
LatitudeDGPSDM.mWGS84
LongitudeDGPSDM.mWGS84
SpeedMeteo Stationm/sRelative wind speed
DirectionMeteo StationdegRelative wind direction
TemperatureMeteo Stationdeg CelciusAir temperature
PressureMeteo StationPaAtmospheric pressure
HumidityMeteo Station%Relative humidity
Missing or incorrect values are displayed as -999
Metereological data collected by the RV Zeeleeuw from 2004-01-05 07:40:16 to 2004-01-05 13:56:09
                                                                                    Next 1000 lines
Time Latitude Longitude Speed Direction Temperature Pressure Humidity
2004-01-05 07:40:24 51°13.592 2°56.109 3.4 106 4.3 101850 92
2004-01-05 07:40:30 51°13.591 2°56.108 3.2 108 4.3 101850 92
2004-01-05 07:40:34 51°13.591 2°56.108 2.6 111 4.3 101850 92
2004-01-05 07:40:40 51°13.592 2°56.107 2.3 122 4.3 101850 92
2004-01-05 07:40:43 51°13.592 2°56.106 3.3 122 4.3 101840 92
2004-01-05 07:40:50 51°13.593 2°56.103 3.5 127 4.3 101840 92
2004-01-05 07:40:54 51°13.594 2°56.1 2.6 134 4.3 101850 92
2004-01-05 07:40:59 51°13.595 2°56.097 2.3 145 4.3 101850 92
2004-01-05 07:41:06 51°13.597 2°56.091 3.5 99 4.3 101850 92
2004-01-05 07:41:10 51°13.598 2°56.088 2.7 111 4.3 101850 92
2004-01-05 07:41:14 51°13.599 2°56.084 2.9 102 4.3 101850 93
2004-01-05 07:41:20 51°13.601 2°56.078 3.7 97 4.3 101850 93
2004-01-05 07:41:24 51°13.602 2°56.073 3.4 111 4.3 101850 93
2004-01-05 07:41:30 51°13.605 2°56.067 2.8 137 4.3 101850 93
2004-01-05 07:41:35 51°13.607 2°56.06 3.3 135 4.3 101850 93
2004-01-05 07:41:38 51°13.608 2°56.057 2.8 134 4.3 101850 93
2004-01-05 07:41:44 51°13.61 2°56.049 2.5 146 4.3 101850 93
2004-01-05 07:41:50 51°13.613 2°56.04 3.9 149 4.3 101850 93
2004-01-05 07:41:54 51°13.614 2°56.035 4.9 128 4.3 101850 93
2004-01-05 07:42:00 51°13.617 2°56.026 5.4 126 4.3 101850 93
2004-01-05 07:42:04 51°13.618 2°56.021 3.7 109 4.3 101850 93
2004-01-05 07:42:10 51°13.621 2°56.012 3.3 121 4.3 101850 93
2004-01-05 07:42:14 51°13.623 2°56.006 2.7 116 4.3 101850 93
2004-01-05 07:42:20 51°13.626 2°55.998 2.9 136 4.3 101850 93
2004-01-05 07:42:24 51°13.628 2°55.992 4.1 146 4.3 101850 93
2004-01-05 07:42:30 51°13.631 2°55.982 4 156 4.3 101850 93
2004-01-05 07:42:34 51°13.632 2°55.976 3.8 136 4.3 101850 93
2004-01-05 07:42:40 51°13.635 2°55.966 3.2 138 4.3 101850 93
2004-01-05 07:42:42 51°13.636 2°55.963 3.2 107 4.3 101850 93
2004-01-05 07:42:50 51°13.641 2°55.95 2 136 4.3 101850 93
2004-01-05 07:42:54 51°13.643 2°55.944 2.9 141 4.3 101850 93
2004-01-05 07:42:58 51°13.645 2°55.937 2.9 159 4.3 101850 93
2004-01-05 07:43:03 51°13.647 2°55.929 2 136 4.3 101850 93
2004-01-05 07:43:10 51°13.651 2°55.916 2.7 164 4.3 101850 93
2004-01-05 07:43:14 51°13.653 2°55.909 2.6 181 4.3 101850 93
2004-01-05 07:43:18 51°13.655 2°55.902 2.6 127 4.3 101850 93
2004-01-05 07:43:23 51°13.658 2°55.893 1.7 154 4.3 101850 93
2004-01-05 07:43:30 51°13.662 2°55.881 2.7 171 4.3 101850 93
2004-01-05 07:43:35 51°13.664 2°55.872 2.3 122 4.3 101850 93
2004-01-05 07:43:38 51°13.666 2°55.867 1.9 171 4.3 101850 93
2004-01-05 07:43:45 51°13.669 2°55.855 4.4 125 4.4 101850 93
2004-01-05 07:43:50 51°13.672 2°55.846 4.1 126 4.4 101850 93
2004-01-05 07:43:54 51°13.674 2°55.839 4.3 141 4.4 101850 93
2004-01-05 07:44:00 51°13.677 2°55.829 4 149 4.4 101850 93
2004-01-05 07:44:04 51°13.679 2°55.821 3.6 145 4.4 101850 93
2004-01-05 07:44:10 51°13.682 2°55.811 3.4 141 4.4 101850 93
2004-01-05 07:44:14 51°13.684 2°55.805 3.6 136 4.4 101850 93
2004-01-05 07:44:20 51°13.686 2°55.795 3.3 131 4.4 101850 93
2004-01-05 07:44:24 51°13.688 2°55.788 3.1 131 4.4 101850 93
2004-01-05 07:44:30 51°13.69 2°55.779 3 116 4.4 101850 93
2004-01-05 07:44:34 51°13.691 2°55.774 2.8 118 4.4 101850 93
2004-01-05 07:44:40 51°13.693 2°55.768 2.5 106 4.4 101850 93
2004-01-05 07:44:44 51°13.694 2°55.765 2.6 92 4.4 101850 93
2004-01-05 07:44:50 51°13.694 2°55.763 2.7 94 4.4 101850 93
2004-01-05 07:44:54 51°13.695 2°55.763 2.9 118 4.4 101840 93
2004-01-05 07:44:59 51°13.695 2°55.763 3.9 107 4.4 101840 93
2004-01-05 07:45:04 51°13.696 2°55.765 4.2 117 4.4 101840 93
2004-01-05 07:45:10 51°13.697 2°55.768 3.1 116 4.4 101840 93
2004-01-05 07:45:14 51°13.698 2°55.771 3.5 117 4.4 101840 93
2004-01-05 07:45:20 51°13.699 2°55.776 2.7 112 4.4 101840 93
2004-01-05 07:45:23 51°13.701 2°55.778 2.3 142 4.4 101850 93
2004-01-05 07:45:30 51°13.704 2°55.781 3 136 4.4 101850 93
2004-01-05 07:45:34 51°13.704 2°55.782 3.8 148 4.4 101840 93
2004-01-05 07:45:39 51°13.705 2°55.783 4.3 159 4.4 101840 93
2004-01-05 07:45:44 51°13.705 2°55.783 3.2 173 4.4 101850 93
2004-01-05 07:45:50 51°13.704 2°55.781 3.4 175 4.4 101850 93
2004-01-05 07:45:54 51°13.704 2°55.78 4.5 190 4.4 101850 93
2004-01-05 07:46:00 51°13.702 2°55.777 3.7 186 4.4 101850 93
2004-01-05 07:46:03 51°13.701 2°55.775 2.8 177 4.4 101850 93
2004-01-05 07:46:10 51°13.698 2°55.771 3.7 180 4.4 101850 93
2004-01-05 07:46:15 51°13.696 2°55.768 3.2 184 4.4 101850 93
2004-01-05 07:46:20 51°13.694 2°55.766 3.9 168 4.4 101850 93
2004-01-05 07:46:25 51°13.692 2°55.763 3.3 165 4.4 101850 93
2004-01-05 07:46:30 51°13.691 2°55.762 1.8 176 4.4 101850 93
2004-01-05 07:46:34 51°13.69 2°55.762 2.3 167 4.4 101850 93
2004-01-05 07:46:38 51°13.691 2°55.761 1.7 176 4.4 101850 93
2004-01-05 07:46:44 51°13.694 2°55.761 1.8 193 4.4 101850 93
2004-01-05 07:46:50 51°13.697 2°55.76 1.6 196 4.4 101850 93
2004-01-05 07:46:54 51°13.7 2°55.76 1.3 223 4.4 101850 93
2004-01-05 07:47:00 51°13.704 2°55.758 1.3 241 4.4 101850 93
2004-01-05 07:47:04 51°13.707 2°55.756 1.4 253 4.4 101850 93
2004-01-05 07:47:10 51°13.712 2°55.753 1.7 241 4.4 101850 93
2004-01-05 07:47:14 51°13.715 2°55.75 2.8 262 4.4 101850 93
2004-01-05 07:47:18 51°13.718 2°55.747 3 264 4.4 101850 93
2004-01-05 07:47:22 51°13.721 2°55.744 2.7 260 4.4 101850 93
2004-01-05 07:47:30 51°13.728 2°55.737 1.8 252 4.4 101850 93
2004-01-05 07:47:35 51°13.733 2°55.731 1.2 251 4.4 101850 93
2004-01-05 07:47:40 51°13.738 2°55.725 1.1 256 4.4 101850 93
2004-01-05 07:47:43 51°13.742 2°55.722 1.3 305 4.4 101850 93
2004-01-05 07:47:50 51°13.75 2°55.713 1.8 328 4.4 101850 93
2004-01-05 07:47:54 51°13.755 2°55.709 2.5 330 4.4 101850 93
2004-01-05 07:48:00 51°13.762 2°55.7 1.9 330 4.4 101850 93
2004-01-05 07:48:03 51°13.766 2°55.696 1.9 340 4.4 101850 93
2004-01-05 07:48:10 51°13.776 2°55.687 2.6 328 4.4 101850 93
2004-01-05 07:48:14 51°13.781 2°55.681 2.7 338 4.5 101850 93
2004-01-05 07:48:20 51°13.789 2°55.672 2.3 332 4.5 101850 93
2004-01-05 07:48:23 51°13.794 2°55.668 2.2 277 4.4 101850 93
2004-01-05 07:48:30 51°13.805 2°55.658 1.8 295 4.4 101850 93
2004-01-05 07:48:34 51°13.812 2°55.652 0.9 340 4.4 101850 93
2004-01-05 07:48:40 51°13.821 2°55.643 0.9 5 4.4 101850 93
2004-01-05 07:48:43 51°13.827 2°55.639 1.3 343 4.4 101850 93
2004-01-05 07:48:50 51°13.839 2°55.629 1.3 352 4.4 101850 93
2004-01-05 07:48:54 51°13.846 2°55.623 1.3 337 4.4 101850 93
2004-01-05 07:48:59 51°13.855 2°55.617 1.5 15 4.4 101850 93
2004-01-05 07:49:03 51°13.862 2°55.611 1.6 22 4.5 101840 93
2004-01-05 07:49:10 51°13.874 2°55.601 1.5 34 4.5 101840 93
2004-01-05 07:49:14 51°13.881 2°55.595 1.2 335 4.4 101840 93
2004-01-05 07:49:20 51°13.892 2°55.587 1.5 307 4.4 101840 93
2004-01-05 07:49:23 51°13.898 2°55.582 2.6 275 4.5 101850 93
2004-01-05 07:49:30 51°13.911 2°55.572 2.2 300 4.5 101850 93
2004-01-05 07:49:34 51°13.919 2°55.566 1.6 334 4.4 101840 93
2004-01-05 07:49:40 51°13.93 2°55.558 2 227 4.4 101840 93
2004-01-05 07:49:43 51°13.937 2°55.554 2.2 336 4.4 101850 93
2004-01-05 07:49:50 51°13.951 2°55.545 2.9 234 4.4 101850 93
2004-01-05 07:49:54 51°13.959 2°55.539 2.8 323 4.5 101850 93
2004-01-05 07:50:00 51°13.971 2°55.531 2.3 328 4.5 101850 93
2004-01-05 07:50:03 51°13.977 2°55.527 1.9 329 4.5 101850 93
2004-01-05 07:50:10 51°13.991 2°55.517 1.9 344 4.5 101850 93
2004-01-05 07:50:14 51°13.998 2°55.511 2 356 4.5 101840 93
2004-01-05 07:50:20 51°14.01 2°55.502 2.1 359 4.5 101840 93
2004-01-05 07:50:23 51°14.016 2°55.497 1.6 11 4.5 101840 93
2004-01-05 07:50:30 51°14.029 2°55.487 1.6 4 4.5 101840 93
2004-01-05 07:50:34 51°14.037 2°55.482 1.4 343 4.5 101850 93
2004-01-05 07:50:40 51°14.05 2°55.474 1.2 339 4.5 101850 93
2004-01-05 07:50:43 51°14.056 2°55.47 2.8 346 4.5 101840 93
2004-01-05 07:50:50 51°14.07 2°55.459 2.2 321 4.5 101840 93
2004-01-05 07:50:54 51°14.077 2°55.453 2.3 320 4.5 101850 93
2004-01-05 07:51:00 51°14.089 2°55.444 2.3 328 4.5 101850 93
2004-01-05 07:51:03 51°14.095 2°55.44 2.1 338 4.5 101840 93
2004-01-05 07:51:10 51°14.108 2°55.429 2.3 321 4.5 101840 93
2004-01-05 07:51:14 51°14.116 2°55.423 1.8 306 4.5 101840 93
2004-01-05 07:51:20 51°14.129 2°55.414 1.4 306 4.5 101840 93
2004-01-05 07:51:23 51°14.136 2°55.409 1.1 318 4.5 101840 93
2004-01-05 07:51:30 51°14.151 2°55.397 2.4 333 4.5 101840 93
2004-01-05 07:51:34 51°14.16 2°55.389 3.4 346 4.5 101840 93
2004-01-05 07:51:38 51°14.169 2°55.382 4 325 4.5 101840 93
2004-01-05 07:51:44 51°14.182 2°55.37 2.8 326 4.5 101840 93
2004-01-05 07:51:50 51°14.196 2°55.356 2.8 332 4.5 101840 93
2004-01-05 07:51:55 51°14.207 2°55.345 3.1 328 4.5 101850 93
2004-01-05 07:52:00 51°14.218 2°55.332 4.4 41 4.5 101850 93
2004-01-05 07:52:04 51°14.226 2°55.322 3.5 41 4.5 101840 93
2004-01-05 07:52:10 51°14.239 2°55.306 4.1 316 4.5 101840 93
2004-01-05 07:52:14 51°14.248 2°55.295 3.4 328 4.5 101840 93
2004-01-05 07:52:20 51°14.26 2°55.278 4.2 330 4.5 101840 93
2004-01-05 07:52:25 51°14.27 2°55.262 6.2 43 4.5 101840 93
2004-01-05 07:52:30 51°14.279 2°55.246 6.1 329 4.5 101840 93
2004-01-05 07:52:34 51°14.286 2°55.233 5.6 321 4.5 101840 93
2004-01-05 07:52:39 51°14.295 2°55.216 7.2 40 4.5 101840 93
2004-01-05 07:52:44 51°14.304 2°55.199 6.6 311 4.5 101840 93
2004-01-05 07:52:50 51°14.314 2°55.177 6.1 228 4.5 101840 93
2004-01-05 07:52:54 51°14.321 2°55.161 6 302 4.5 101840 93
2004-01-05 07:52:59 51°14.329 2°55.142 5.3 318 4.5 101840 93
2004-01-05 07:53:04 51°14.338 2°55.122 4.5 315 4.5 101820 93
2004-01-05 07:53:10 51°14.348 2°55.098 4.3 335 4.5 101820 93
2004-01-05 07:53:14 51°14.354 2°55.081 5.1 325 4.6 101820 93
2004-01-05 07:53:19 51°14.361 2°55.06 5.1 37 4.6 101820 93
2004-01-05 07:53:24 51°14.368 2°55.037 7.6 305 4.6 101830 93
2004-01-05 07:53:30 51°14.376 2°55.009 8.6 314 4.6 101830 93
2004-01-05 07:53:34 51°14.382 2°54.99 8.9 313 4.6 101820 93
2004-01-05 07:53:40 51°14.389 2°54.96 8.7 318 4.6 101820 93
2004-01-05 07:53:43 51°14.392 2°54.945 8.7 324 4.6 101830 93
2004-01-05 07:53:50 51°14.397 2°54.909 9.5 321 4.6 101830 93
2004-01-05 07:53:54 51°14.399 2°54.887 9 327 4.6 101820 93
2004-01-05 07:54:00 51°14.4 2°54.855 9.5 325 4.6 101820 93
2004-01-05 07:54:03 51°14.4 2°54.838 11 329 4.6 101810 93
2004-01-05 07:54:10 51°14.4 2°54.799 10.6 328 4.6 101810 93
2004-01-05 07:54:14 51°14.399 2°54.777 10.3 334 4.6 101810 93
2004-01-05 07:54:20 51°14.398 2°54.744 11.1 331 4.6 101810 93
2004-01-05 07:54:23 51°14.397 2°54.727 10.6 334 4.6 101810 93
2004-01-05 07:54:30 51°14.394 2°54.687 11.2 327 4.6 101810 93
2004-01-05 07:54:34 51°14.393 2°54.665 11.2 330 4.6 101810 93
2004-01-05 07:54:38 51°14.39 2°54.643 10.2 332 4.6 101810 93
2004-01-05 07:54:44 51°14.385 2°54.61 10.9 332 4.6 101790 93
2004-01-05 07:54:50 51°14.378 2°54.577 12.6 329 4.6 101790 93
2004-01-05 07:54:54 51°14.373 2°54.555 11.1 337 4.6 101800 93
2004-01-05 07:55:00 51°14.364 2°54.524 10.2 340 4.6 101800 93
2004-01-05 07:55:05 51°14.357 2°54.499 10.8 339 4.6 101810 93
2004-01-05 07:55:10 51°14.348 2°54.474 11.1 350 4.6 101810 93
2004-01-05 07:55:14 51°14.341 2°54.454 13.2 343 4.6 101800 93
2004-01-05 07:55:20 51°14.331 2°54.424 12.2 349 4.6 101800 93
2004-01-05 07:55:25 51°14.323 2°54.399 12.5 338 4.6 101800 93
2004-01-05 07:55:30 51°14.316 2°54.373 13.1 337 4.6 101800 93
2004-01-05 07:55:35 51°14.307 2°54.348 11.7 342 4.6 101810 93
2004-01-05 07:55:40 51°14.299 2°54.322 12.3 339 4.6 101810 93
2004-01-05 07:55:42 51°14.295 2°54.312 11.1 344 4.6 101810 93
2004-01-05 07:55:50 51°14.282 2°54.272 11.5 339 4.6 101810 93
2004-01-05 07:55:54 51°14.274 2°54.253 12.7 344 4.6 101800 93
2004-01-05 07:55:58 51°14.268 2°54.232 12.2 340 4.6 101800 93
2004-01-05 07:56:03 51°14.258 2°54.207 12.3 343 4.6 101810 93
2004-01-05 07:56:10 51°14.246 2°54.172 11.6 342 4.6 101810 93
2004-01-05 07:56:14 51°14.24 2°54.152 11.8 335 4.6 101750 93
2004-01-05 07:56:18 51°14.232 2°54.132 11.1 346 4.6 101750 93
2004-01-05 07:56:24 51°14.222 2°54.102 12.4 345 4.6 101750 93
2004-01-05 07:56:30 51°14.211 2°54.072 11.8 345 4.6 101750 93
2004-01-05 07:56:34 51°14.205 2°54.051 13.4 341 4.6 101750 93
2004-01-05 07:56:40 51°14.194 2°54.022 13.2 343 4.6 101750 93
2004-01-05 07:56:43 51°14.189 2°54.006 13.1 342 4.6 101750 93
2004-01-05 07:56:50 51°14.176 2°53.971 11.1 340 4.6 101750 93
2004-01-05 07:56:54 51°14.17 2°53.95 13 339 4.6 101740 93
2004-01-05 07:57:00 51°14.16 2°53.92 13.2 337 4.6 101740 93
2004-01-05 07:57:03 51°14.154 2°53.905 12.8 339 4.6 101750 93
2004-01-05 07:57:10 51°14.142 2°53.87 13.8 337 4.6 101750 93
2004-01-05 07:57:14 51°14.136 2°53.849 13.4 342 4.6 101740 93
2004-01-05 07:57:20 51°14.125 2°53.82 12.7 341 4.6 101740 93
2004-01-05 07:57:23 51°14.12 2°53.804 11.9 340 4.6 101750 93
2004-01-05 07:57:30 51°14.108 2°53.769 12.3 338 4.6 101750 93
2004-01-05 07:57:34 51°14.102 2°53.749 13 334 4.6 101730 93
2004-01-05 07:57:40 51°14.091 2°53.718 11.8 343 4.6 101730 93
2004-01-05 07:57:43 51°14.086 2°53.703 12 337 4.6 101750 93
2004-01-05 07:57:50 51°14.074 2°53.667 11 340 4.6 101750 93
2004-01-05 07:57:54 51°14.067 2°53.647 11.1 345 4.6 101780 93
2004-01-05 07:58:00 51°14.057 2°53.617 12.6 344 4.6 101780 93
2004-01-05 07:58:03 51°14.052 2°53.601 11.2 345 4.7 101760 93
2004-01-05 07:58:10 51°14.04 2°53.566 10.6 343 4.7 101760 93
2004-01-05 07:58:14 51°14.032 2°53.546 11.7 345 4.7 101750 93
2004-01-05 07:58:20 51°14.023 2°53.515 12.1 346 4.7 101750 93
2004-01-05 07:58:23 51°14.017 2°53.5 12.4 346 4.6 101760 93
2004-01-05 07:58:30 51°14.006 2°53.464 11.9 342 4.6 101760 93
2004-01-05 07:58:34 51°13.998 2°53.444 12.6 346 4.6 101760 93
2004-01-05 07:58:39 51°13.991 2°53.418 12.2 343 4.6 101760 93
2004-01-05 07:58:43 51°13.983 2°53.398 11.9 345 4.6 101760 93
2004-01-05 07:58:50 51°13.972 2°53.361 11.6 340 4.6 101760 93
2004-01-05 07:58:54 51°13.964 2°53.341 11.8 342 4.6 101750 93
2004-01-05 07:59:00 51°13.954 2°53.31 11.2 343 4.6 101750 93
2004-01-05 07:59:03 51°13.949 2°53.295 12.1 338 4.6 101760 93
2004-01-05 07:59:10 51°13.937 2°53.259 12.3 346 4.6 101760 93
2004-01-05 07:59:14 51°13.93 2°53.238 11.6 337 4.6 101760 93
2004-01-05 07:59:19 51°13.922 2°53.213 11.9 343 4.6 101760 93
2004-01-05 07:59:23 51°13.914 2°53.193 12.1 340 4.6 101750 93
2004-01-05 07:59:30 51°13.902 2°53.157 12.7 346 4.6 101750 93
2004-01-05 07:59:35 51°13.893 2°53.131 12.9 343 4.6 101750 93
2004-01-05 07:59:38 51°13.888 2°53.115 13.5 342 4.6 101750 93
2004-01-05 07:59:45 51°13.875 2°53.079 13.6 345 4.6 101760 93
2004-01-05 07:59:50 51°13.867 2°53.052 13.1 344 4.6 101760 93
2004-01-05 07:59:54 51°13.859 2°53.032 12.2 349 4.6 101750 93
2004-01-05 07:59:59 51°13.851 2°53.004 11.8 348 4.6 101750 93
2004-01-05 08:00:04 51°13.841 2°52.978 12.2 341 4.6 101750 93
2004-01-05 08:00:10 51°13.831 2°52.945 11.5 343 4.6 101750 93
2004-01-05 08:00:15 51°13.821 2°52.918 12.4 339 4.6 101740 93
2004-01-05 08:00:18 51°13.816 2°52.902 11.9 341 4.6 101740 93
2004-01-05 08:00:24 51°13.806 2°52.868 12.5 339 4.6 101740 93
2004-01-05 08:00:30 51°13.795 2°52.835 12.4 340 4.6 101740 93
2004-01-05 08:00:34 51°13.787 2°52.814 13.8 344 4.6 101740 93
2004-01-05 08:00:40 51°13.776 2°52.781 13.8 343 4.6 101740 93
2004-01-05 08:00:43 51°13.771 2°52.765 12 340 4.6 101740 93
2004-01-05 08:00:50 51°13.758 2°52.726 13 343 4.6 101740 93
2004-01-05 08:00:55 51°13.749 2°52.699 12.5 339 4.6 101750 93
2004-01-05 08:00:59 51°13.741 2°52.677 11.4 343 4.6 101750 93
2004-01-05 08:01:04 51°13.732 2°52.649 11.7 342 4.6 101750 93
2004-01-05 08:01:10 51°13.721 2°52.616 10.7 346 4.6 101750 93
2004-01-05 08:01:14 51°13.714 2°52.594 11.2 342 4.6 101740 93
2004-01-05 08:01:18 51°13.707 2°52.572 12.4 343 4.6 101740 93
2004-01-05 08:01:23 51°13.698 2°52.544 12.6 342 4.6 101750 93
2004-01-05 08:01:30 51°13.685 2°52.506 12.7 341 4.6 101750 93
2004-01-05 08:01:34 51°13.677 2°52.484 11.6 341 4.6 101750 93
2004-01-05 08:01:40 51°13.666 2°52.451 11.5 348 4.6 101750 93
2004-01-05 08:01:43 51°13.661 2°52.434 11.4 335 4.6 101750 93
2004-01-05 08:01:50 51°13.647 2°52.396 10.7 348 4.6 101750 93
2004-01-05 08:01:54 51°13.64 2°52.374 12.7 342 4.6 101740 93
2004-01-05 08:01:59 51°13.63 2°52.347 11.4 342 4.6 101740 93
2004-01-05 08:02:03 51°13.623 2°52.324 11.8 343 4.6 101740 94
2004-01-05 08:02:10 51°13.609 2°52.286 11.9 347 4.6 101740 94
2004-01-05 08:02:14 51°13.602 2°52.264 4.4 345 4.6 101740 93
2004-01-05 08:02:19 51°13.592 2°52.236 11.9 344 4.6 101740 93
2004-01-05 08:02:23 51°13.586 2°52.214 11.5 343 4.6 101740 94
2004-01-05 08:02:30 51°13.572 2°52.176 12 344 4.6 101740 94
2004-01-05 08:02:34 51°13.565 2°52.154 12.3 342 4.6 101740 94
2004-01-05 08:02:40 51°13.554 2°52.12 11.2 343 4.6 101740 94
2004-01-05 08:02:43 51°13.548 2°52.104 11.6 344 4.5 101740 94
2004-01-05 08:02:49 51°13.538 2°52.07 12.4 342 4.5 101740 94
2004-01-05 08:02:54 51°13.528 2°52.043 11.8 344 4.6 101740 94
2004-01-05 08:02:58 51°13.521 2°52.021 11.3 340 4.6 101740 94
2004-01-05 08:03:03 51°13.512 2°51.993 11.6 341 4.6 101750 94
2004-01-05 08:03:10 51°13.499 2°51.954 12.7 343 4.6 101750 94
2004-01-05 08:03:14 51°13.492 2°51.932 14.7 339 4.6 101750 94
2004-01-05 08:03:18 51°13.484 2°51.91 12.5 340 4.6 101750 94
2004-01-05 08:03:23 51°13.475 2°51.882 13.7 346 4.6 101740 94
2004-01-05 08:03:29 51°13.464 2°51.849 12.4 347 4.6 101740 94
2004-01-05 08:03:34 51°13.455 2°51.822 12.7 346 4.6 101740 94
2004-01-05 08:03:38 51°13.447 2°51.8 12.3 345 4.6 101740 94
2004-01-05 08:03:45 51°13.434 2°51.761 12.7 342 4.6 101740 94
2004-01-05 08:03:50 51°13.425 2°51.733 12.7 343 4.6 101740 94
2004-01-05 08:03:55 51°13.416 2°51.706 12.3 342 4.6 101740 94
2004-01-05 08:03:59 51°13.408 2°51.684 12.1 340 4.6 101740 94
2004-01-05 08:04:03 51°13.401 2°51.662 11.7 344 4.6 101730 94
2004-01-05 08:04:10 51°13.388 2°51.624 12.5 345 4.6 101730 94
2004-01-05 08:04:14 51°13.381 2°51.601 13.3 341 4.6 101740 94
2004-01-05 08:04:20 51°13.37 2°51.568 12.9 342 4.6 101740 94
2004-01-05 08:04:25 51°13.361 2°51.54 12.1 345 4.6 101740 94
2004-01-05 08:04:30 51°13.352 2°51.513 11.8 339 4.6 101740 94
2004-01-05 08:04:34 51°13.344 2°51.491 12.8 344 4.6 101740 94
2004-01-05 08:04:40 51°13.333 2°51.458 11.6 341 4.6 101740 94
2004-01-05 08:04:43 51°13.327 2°51.441 12.2 342 4.6 101740 94
2004-01-05 08:04:50 51°13.315 2°51.402 12.5 340 4.6 101740 94
2004-01-05 08:04:54 51°13.308 2°51.381 13.3 342 4.6 101740 94
2004-01-05 08:05:00 51°13.296 2°51.348 12.4 345 4.6 101740 94
2004-01-05 08:05:03 51°13.291 2°51.331 12.2 344 4.6 101740 94
2004-01-05 08:05:10 51°13.278 2°51.293 11.6 343 4.6 101740 94
2004-01-05 08:05:14 51°13.271 2°51.271 12.4 340 4.6 101740 94
2004-01-05 08:05:19 51°13.261 2°51.243 11.3 344 4.6 101740 94
2004-01-05 08:05:25 51°13.251 2°51.21 12.7 333 4.6 101740 94
2004-01-05 08:05:30 51°13.242 2°51.183 12.3 339 4.6 101740 94
2004-01-05 08:05:34 51°13.234 2°51.161 12.3 344 4.6 101740 94
2004-01-05 08:05:38 51°13.227 2°51.139 13.3 341 4.6 101740 94
2004-01-05 08:05:43 51°13.218 2°51.111 12.6 344 4.6 101740 94
2004-01-05 08:05:50 51°13.205 2°51.072 13.2 342 4.6 101740 94
2004-01-05 08:05:55 51°13.196 2°51.045 13.2 339 4.6 101740 94
2004-01-05 08:05:58 51°13.191 2°51.029 13.1 350 4.6 101740 94
2004-01-05 08:06:02 51°13.184 2°51.006 11.9 344 4.6 101740 94
2004-01-05 08:06:10 51°13.169 2°50.963 13.3 343 4.6 101740 94
2004-01-05 08:06:14 51°13.162 2°50.941 13.3 344 4.6 101730 94
2004-01-05 08:06:19 51°13.153 2°50.913 12.5 344 4.6 101730 94
2004-01-05 08:06:23 51°13.145 2°50.891 12.7 340 4.6 101730 94
2004-01-05 08:06:30 51°13.133 2°50.853 12.7 342 4.6 101730 94
2004-01-05 08:06:34 51°13.125 2°50.831 12.2 344 4.6 101740 94
2004-01-05 08:06:40 51°13.114 2°50.798 12.7 340 4.6 101740 94
2004-01-05 08:06:43 51°13.109 2°50.781 13.2 342 4.6 101740 94
2004-01-05 08:06:50 51°13.096 2°50.743 12 341 4.6 101740 94
2004-01-05 08:06:54 51°13.089 2°50.721 11.8 346 4.6 101740 94
2004-01-05 08:07:00 51°13.077 2°50.689 12.3 347 4.6 101740 94
2004-01-05 08:07:05 51°13.068 2°50.661 12.4 340 4.6 101740 94
2004-01-05 08:07:10 51°13.059 2°50.633 11.8 344 4.6 101740 94
2004-01-05 08:07:15 51°13.05 2°50.605 12.1 343 4.6 101730 94
2004-01-05 08:07:19 51°13.043 2°50.583 12.2 345 4.6 101730 94
2004-01-05 08:07:25 51°13.032 2°50.55 12.5 345 4.6 101730 94
2004-01-05 08:07:30 51°13.022 2°50.523 12.3 343 4.6 101730 94
2004-01-05 08:07:34 51°13.015 2°50.501 12 342 4.6 101730 94
2004-01-05 08:07:40 51°13.004 2°50.467 12.7 343 4.6 101730 94
2004-01-05 08:07:45 51°12.995 2°50.44 13.2 347 4.7 101740 94
2004-01-05 08:07:50 51°12.987 2°50.412 13.1 343 4.7 101740 94
2004-01-05 08:07:55 51°12.978 2°50.384 12.4 342 4.7 101740 94
2004-01-05 08:08:00 51°12.969 2°50.356 13.3 344 4.7 101740 94
2004-01-05 08:08:04 51°12.961 2°50.334 13.3 341 4.7 101740 94
2004-01-05 08:08:10 51°12.951 2°50.301 11.8 343 4.7 101740 94
2004-01-05 08:08:14 51°12.943 2°50.279 13.4 343 4.7 101740 94
2004-01-05 08:08:20 51°12.933 2°50.245 12.2 343 4.7 101740 94
2004-01-05 08:08:25 51°12.923 2°50.218 12.2 343 4.6 101740 94
2004-01-05 08:08:30 51°12.915 2°50.19 12.3 344 4.6 101740 94
2004-01-05 08:08:34 51°12.907 2°50.168 12.2 340 4.7 101740 94
2004-01-05 08:08:38 51°12.9 2°50.146 12.1 343 4.7 101740 94
2004-01-05 08:08:42 51°12.893 2°50.123 11.9 342 4.7 101730 94
2004-01-05 08:08:50 51°12.879 2°50.079 12.9 340 4.7 101730 94
2004-01-05 08:08:55 51°12.869 2°50.052 13 344 4.7 101740 94
2004-01-05 08:08:59 51°12.862 2°50.029 12.4 342 4.7 101740 94
2004-01-05 08:09:04 51°12.853 2°50.001 13.1 343 4.7 101740 94
2004-01-05 08:09:10 51°12.842 2°49.968 13.7 343 4.7 101740 94
2004-01-05 08:09:14 51°12.835 2°49.946 13 345 4.7 101740 94
2004-01-05 08:09:18 51°12.828 2°49.924 13.3 346 4.7 101740 94
2004-01-05 08:09:22 51°12.821 2°49.902 13.2 339 4.7 101730 94
2004-01-05 08:09:30 51°12.806 2°49.857 13.7 345 4.7 101730 94
2004-01-05 08:09:35 51°12.798 2°49.83 13.5 343 4.7 101740 94
2004-01-05 08:09:38 51°12.792 2°49.813 13.4 345 4.7 101740 94
2004-01-05 08:09:44 51°12.781 2°49.78 13.2 344 4.7 101730 94
2004-01-05 08:09:49 51°12.772 2°49.752 12.4 345 4.7 101730 94
2004-01-05 08:09:54 51°12.763 2°49.725 13 343 4.7 101730 94
2004-01-05 08:09:58 51°12.756 2°49.704 12.2 349 4.7 101730 94
2004-01-05 08:10:04 51°12.744 2°49.67 14.5 346 4.8 101730 94
2004-01-05 08:10:10 51°12.733 2°49.638 12.5 344 4.8 101730 94
2004-01-05 08:10:14 51°12.726 2°49.616 13.6 339 4.9 101730 94
2004-01-05 08:10:19 51°12.717 2°49.588 14.1 347 4.9 101730 94
2004-01-05 08:10:24 51°12.708 2°49.56 13.3 343 4.8 101730 94
2004-01-05 08:10:30 51°12.697 2°49.528 12.4 346 4.8 101730 94
2004-01-05 08:10:34 51°12.69 2°49.506 13.9 344 4.8 101730 94
2004-01-05 08:10:40 51°12.679 2°49.473 12.4 342 4.8 101730 94
2004-01-05 08:10:45 51°12.67 2°49.446 13.5 344 4.8 101730 94
2004-01-05 08:10:50 51°12.66 2°49.419 13.9 342 4.8 101730 94
2004-01-05 08:10:54 51°12.654 2°49.396 13.9 342 4.8 101730 94
2004-01-05 08:11:00 51°12.643 2°49.363 13.9 342 4.8 101730 94
2004-01-05 08:11:02 51°12.64 2°49.352 13.1 343 4.9 101740 94
2004-01-05 08:11:10 51°12.625 2°49.309 13 343 4.9 101740 94
2004-01-05 08:11:15 51°12.616 2°49.282 13.7 342 4.9 101730 94
2004-01-05 08:11:18 51°12.61 2°49.265 12.8 341 4.9 101730 94
2004-01-05 08:11:23 51°12.602 2°49.238 14 344 4.9 101730 94
2004-01-05 08:11:30 51°12.589 2°49.2 13.3 347 4.9 101730 94
2004-01-05 08:11:34 51°12.582 2°49.178 12 343 4.9 101720 94
2004-01-05 08:11:40 51°12.571 2°49.146 12.6 340 4.9 101720 94
2004-01-05 08:11:43 51°12.566 2°49.129 13.2 340 4.9 101730 94
2004-01-05 08:11:50 51°12.553 2°49.092 13.6 343 4.9 101730 94
2004-01-05 08:11:54 51°12.546 2°49.069 13.5 341 4.9 101730 94
2004-01-05 08:11:59 51°12.537 2°49.042 12.4 342 4.9 101730 94
2004-01-05 08:12:03 51°12.53 2°49.02 13.4 341 4.9 101730 94
2004-01-05 08:12:10 51°12.518 2°48.982 13.4 343 4.9 101730 94
2004-01-05 08:12:14 51°12.511 2°48.96 12.5 344 4.9 101730 94
2004-01-05 08:12:18 51°12.504 2°48.938 12.8 341 4.9 101730 94
2004-01-05 08:12:25 51°12.492 2°48.899 12.8 343 4.9 101730 94
2004-01-05 08:12:30 51°12.484 2°48.871 12.5 343 4.9 101730 94
2004-01-05 08:12:34 51°12.478 2°48.849 11.8 344 4.9 101740 94
2004-01-05 08:12:38 51°12.472 2°48.826 12.9 343 4.9 101740 94
2004-01-05 08:12:43 51°12.464 2°48.798 12.7 341 4.9 101720 94
2004-01-05 08:12:50 51°12.453 2°48.76 12 344 4.9 101720 94
2004-01-05 08:12:55 51°12.445 2°48.732 13.4 342 4.9 101730 94
2004-01-05 08:13:00 51°12.437 2°48.704 12.4 345 4.9 101730 94
2004-01-05 08:13:05 51°12.429 2°48.675 13.6 346 4.9 101720 94
2004-01-05 08:13:10 51°12.421 2°48.648 12.9 343 4.9 101720 94
2004-01-05 08:13:14 51°12.415 2°48.625 12.9 342 5 101720 94
2004-01-05 08:13:20 51°12.405 2°48.592 12.3 343 5 101720 94
2004-01-05 08:13:22 51°12.402 2°48.581 12.6 342 5 101730 94
2004-01-05 08:13:30 51°12.389 2°48.536 12 342 5 101730 94
2004-01-05 08:13:35 51°12.382 2°48.508 13.6 342 5 101730 94
2004-01-05 08:13:38 51°12.377 2°48.491 12.5 341 5 101730 94
2004-01-05 08:13:45 51°12.366 2°48.452 13.6 343 5 101730 94
2004-01-05 08:13:50 51°12.358 2°48.424 12.1 344 5 101730 94
2004-01-05 08:13:55 51°12.35 2°48.396 13.1 341 5 101720 94
2004-01-05 08:13:59 51°12.344 2°48.374 13.5 342 5 101720 94
2004-01-05 08:14:05 51°12.335 2°48.34 13.8 341 5 101720 94
2004-01-05 08:14:10 51°12.326 2°48.312 13.2 341 5 101720 94
2004-01-05 08:14:15 51°12.319 2°48.284 13.4 342 5 101720 94
2004-01-05 08:14:20 51°12.31 2°48.256 13.3 341 5 101720 94
2004-01-05 08:14:22 51°12.307 2°48.245 12.4 345 5 101720 94
2004-01-05 08:14:30 51°12.295 2°48.201 13.1 344 5 101720 94
2004-01-05 08:14:34 51°12.288 2°48.179 12.3 347 5 101730 94
2004-01-05 08:14:40 51°12.279 2°48.145 12.6 345 5 101730 94
2004-01-05 08:14:45 51°12.271 2°48.117 12 347 5 101730 94
2004-01-05 08:14:50 51°12.263 2°48.089 13.1 342 5 101730 94
2004-01-05 08:14:54 51°12.257 2°48.067 11.8 345 5 101730 94
2004-01-05 08:14:58 51°12.251 2°48.045 11.9 344 5 101730 94
2004-01-05 08:15:03 51°12.243 2°48.017 13.4 343 5.1 101730 94
2004-01-05 08:15:10 51°12.231 2°47.978 12.2 344 5.1 101730 94
2004-01-05 08:15:14 51°12.225 2°47.955 13.4 342 5 101730 94
2004-01-05 08:15:20 51°12.216 2°47.922 12.9 342 5 101730 94
2004-01-05 08:15:25 51°12.207 2°47.894 12.8 342 5.1 101730 94
2004-01-05 08:15:30 51°12.199 2°47.866 13.2 344 5.1 101730 94
2004-01-05 08:15:34 51°12.193 2°47.844 13.4 346 5.1 101720 94
2004-01-05 08:15:40 51°12.183 2°47.811 14.6 350 5.1 101720 94
2004-01-05 08:15:42 51°12.179 2°47.8 14 347 5.1 101730 94
2004-01-05 08:15:50 51°12.167 2°47.755 13.2 343 5.1 101730 94
2004-01-05 08:15:54 51°12.161 2°47.733 13.2 350 5.1 101720 94
2004-01-05 08:15:58 51°12.155 2°47.71 13.2 341 5.1 101720 94
2004-01-05 08:16:04 51°12.145 2°47.677 13.6 346 5.1 101730 94
2004-01-05 08:16:10 51°12.136 2°47.643 12.9 344 5.1 101730 94
2004-01-05 08:16:14 51°12.129 2°47.621 13.7 342 5.2 101730 94
2004-01-05 08:16:20 51°12.12 2°47.588 12.5 344 5.2 101730 94
2004-01-05 08:16:25 51°12.112 2°47.56 13.7 346 5.2 101730 94
2004-01-05 08:16:30 51°12.104 2°47.532 13.1 345 5.2 101730 94
2004-01-05 08:16:34 51°12.098 2°47.51 13.2 345 5.2 101720 94
2004-01-05 08:16:39 51°12.089 2°47.482 13.7 345 5.2 101720 94
2004-01-05 08:16:45 51°12.08 2°47.449 13.7 343 5.2 101730 94
2004-01-05 08:16:50 51°12.072 2°47.421 14.3 345 5.2 101730 94
2004-01-05 08:16:54 51°12.066 2°47.399 13.7 342 5.2 101730 94
2004-01-05 08:16:59 51°12.058 2°47.371 13.9 342 5.2 101730 94
2004-01-05 08:17:03 51°12.052 2°47.349 13.9 340 5.2 101730 94
2004-01-05 08:17:13 51°12.036 2°47.294 14.2 341 5.2 101730 94
2004-01-05 08:17:18 51°12.029 2°47.265 14 345 5.2 101730 94
2004-01-05 08:17:23 51°12.02 2°47.238 13.3 345 5.2 101730 94
2004-01-05 08:17:28 51°12.013 2°47.21 13.5 340 5.2 101730 94
2004-01-05 08:17:33 51°12.004 2°47.182 12.7 343 5.2 101730 94
2004-01-05 08:17:38 51°11.997 2°47.154 13.7 342 5.2 101730 94
2004-01-05 08:17:43 51°11.989 2°47.127 13.3 341 5.2 101730 94
2004-01-05 08:17:47 51°11.983 2°47.104 13.1 346 5.2 101720 94
2004-01-05 08:17:51 51°11.977 2°47.082 13.4 343 5.2 101720 94
2004-01-05 08:17:57 51°11.967 2°47.048 13.7 342 5.2 101730 94
2004-01-05 08:18:03 51°11.958 2°47.015 12.8 344 5.2 101730 94
2004-01-05 08:18:06 51°11.953 2°46.998 13 345 5.2 101730 94
2004-01-05 08:18:13 51°11.941 2°46.959 13 342 5.2 101730 94
2004-01-05 08:18:18 51°11.931 2°46.931 13.1 341 5.2 101730 94
2004-01-05 08:18:42 51°11.893 2°46.798 13.2 342 5.2 101730 94
2004-01-05 08:18:49 51°11.882 2°46.758 13.3 344 5.2 101730 94
2004-01-05 08:18:54 51°11.874 2°46.731 14.4 339 5.2 101730 94
2004-01-05 08:18:58 51°11.866 2°46.71 13.1 346 5.2 101730 94
2004-01-05 08:19:03 51°11.858 2°46.683 14.3 341 5.2 101730 94
2004-01-05 08:19:09 51°11.848 2°46.65 13.9 343 5.2 101730 94
2004-01-05 08:19:14 51°11.841 2°46.622 12.8 343 5.2 101730 94
2004-01-05 08:19:18 51°11.835 2°46.6 12.4 345 5.2 101730 94
2004-01-05 08:19:23 51°11.828 2°46.572 13.2 344 5.2 101730 94
2004-01-05 08:19:27 51°11.823 2°46.55 13.2 342 5.2 101730 94
2004-01-05 08:19:34 51°11.812 2°46.51 13.3 340 5.2 101730 94
2004-01-05 08:19:39 51°11.805 2°46.482 13.2 342 5.2 101730 94
2004-01-05 08:19:43 51°11.799 2°46.459 13.2 341 5.2 101730 94
2004-01-05 08:19:47 51°11.794 2°46.436 12.4 344 5.2 101730 94
2004-01-05 08:19:54 51°11.784 2°46.397 12.9 342 5.2 101730 94
2004-01-05 08:19:58 51°11.778 2°46.374 12.7 343 5.2 101730 94
2004-01-05 08:20:03 51°11.769 2°46.346 13 339 5.2 101730 94
2004-01-05 08:20:09 51°11.76 2°46.312 13.3 345 5.2 101730 94
2004-01-05 08:20:14 51°11.752 2°46.288 12.5 342 5.2 101730 94
2004-01-05 08:20:19 51°11.745 2°46.261 13.2 343 5.2 101730 94
2004-01-05 08:20:23 51°11.739 2°46.238 12.5 344 5.2 101730 94
2004-01-05 08:20:26 51°11.734 2°46.221 12.1 342 5.2 101730 94
2004-01-05 08:20:34 51°11.721 2°46.176 13.4 341 5.2 101730 94
2004-01-05 08:20:39 51°11.714 2°46.148 12.6 341 5.2 101730 94
2004-01-05 08:20:42 51°11.709 2°46.131 12.3 346 5.2 101730 94
2004-01-05 08:20:49 51°11.698 2°46.091 12.3 338 5.2 101730 94
2004-01-05 08:20:54 51°11.689 2°46.065 11.8 343 5.2 101730 94
2004-01-05 08:20:58 51°11.682 2°46.044 13.5 338 5.2 101730 94
2004-01-05 08:21:03 51°11.672 2°46.017 12.6 343 5.2 101730 94
2004-01-05 08:21:09 51°11.662 2°45.984 12.1 342 5.2 101730 94
2004-01-05 08:21:13 51°11.656 2°45.962 12.7 342 5.2 101730 94
2004-01-05 08:21:18 51°11.649 2°45.933 12.2 338 5.2 101730 94
2004-01-05 08:21:23 51°11.643 2°45.904 12.2 343 5.2 101730 94
2004-01-05 08:21:28 51°11.635 2°45.876 12.6 343 5.2 101730 94
2004-01-05 08:21:31 51°11.631 2°45.86 14.1 339 5.2 101720 94
2004-01-05 08:21:38 51°11.62 2°45.821 12.4 343 5.2 101720 94
2004-01-05 08:21:43 51°11.613 2°45.793 11.8 340 5.2 101780 94
2004-01-05 08:21:49 51°11.603 2°45.761 12.1 340 5.2 101780 94
2004-01-05 08:21:52 51°11.598 2°45.744 13.6 339 5.2 101730 94
2004-01-05 08:21:58 51°11.589 2°45.711 12.2 338 5.2 101730 94
2004-01-05 08:22:03 51°11.581 2°45.684 12 339 5.2 101720 94
2004-01-05 08:22:06 51°11.576 2°45.667 12.4 340 5.2 101720 94
2004-01-05 08:22:14 51°11.564 2°45.623 12.5 337 5.2 101730 94
2004-01-05 08:22:18 51°11.558 2°45.601 12 341 5.2 101730 94
2004-01-05 08:22:23 51°11.552 2°45.572 12.1 341 5.2 101720 94
2004-01-05 08:22:26 51°11.549 2°45.555 12.9 337 5.2 101720 94
2004-01-05 08:22:31 51°11.542 2°45.526 12.8 342 5.2 101720 94
2004-01-05 08:22:39 51°11.532 2°45.481 11.9 338 5.2 101720 94
2004-01-05 08:22:46 51°11.522 2°45.442 12.1 338 5.2 101730 94
2004-01-05 08:22:51 51°11.515 2°45.413 11.7 339 5.2 101730 94
2004-01-05 08:22:55 51°11.51 2°45.39 12.1 337 5.2 101720 94
2004-01-05 08:23:01 51°11.502 2°45.357 11.9 338 5.2 101720 94
2004-01-05 08:23:05 51°11.497 2°45.334 12.9 335 5.2 101730 94
2004-01-05 08:23:09 51°11.492 2°45.311 12.2 339 5.2 101730 94
2004-01-05 08:23:15 51°11.484 2°45.276 11.6 342 5.2 101720 94
2004-01-05 08:23:18 51°11.48 2°45.259 11.8 338 5.2 101720 94
2004-01-05 08:23:26 51°11.469 2°45.214 12.7 337 5.2 101720 94
2004-01-05 08:23:31 51°11.464 2°45.185 13.1 337 5.2 101720 94
2004-01-05 08:23:35 51°11.458 2°45.163 11.6 340 5.2 101720 94
2004-01-05 08:23:41 51°11.449 2°45.129 11.8 342 5.2 101720 94
2004-01-05 08:23:45 51°11.444 2°45.107 11.9 341 5.2 101730 94
2004-01-05 08:23:50 51°11.436 2°45.079 12.3 341 5.2 101730 94
2004-01-05 08:23:55 51°11.428 2°45.051 11.8 342 5.2 101730 94
2004-01-05 08:24:01 51°11.418 2°45.019 12.1 344 5.2 101730 94
2004-01-05 08:24:06 51°11.41 2°44.991 12.1 341 5.2 101730 94
2004-01-05 08:24:11 51°11.402 2°44.964 12.2 341 5.2 101730 94
2004-01-05 08:24:15 51°11.397 2°44.941 12.1 338 5.2 101720 94
2004-01-05 08:24:20 51°11.389 2°44.913 11.4 336 5.2 101720 94
2004-01-05 08:24:26 51°11.381 2°44.88 11.9 342 5.2 101730 94
2004-01-05 08:24:30 51°11.374 2°44.858 12.2 341 5.2 101730 94
2004-01-05 08:24:35 51°11.367 2°44.829 12.1 338 5.2 101730 94
2004-01-05 08:24:39 51°11.361 2°44.807 11.5 343 5.2 101730 94
2004-01-05 08:24:46 51°11.351 2°44.768 12.2 343 5.2 101720 94
2004-01-05 08:24:51 51°11.342 2°44.741 11.9 343 5.2 101720 94
2004-01-05 08:24:55 51°11.337 2°44.719 11.6 340 5.2 101720 94
2004-01-05 08:25:01 51°11.327 2°44.686 11.6 343 5.2 101720 94
2004-01-05 08:25:05 51°11.322 2°44.663 12.2 338 5.2 101730 94
2004-01-05 08:25:11 51°11.313 2°44.63 11.6 344 5.2 101730 94
2004-01-05 08:25:14 51°11.309 2°44.613 12.1 340 5.2 101720 94
2004-01-05 08:25:21 51°11.298 2°44.574 12.1 343 5.2 101720 94
2004-01-05 08:25:26 51°11.29 2°44.547 11.9 339 5.2 101720 94
2004-01-05 08:25:30 51°11.284 2°44.524 12.3 344 5.2 101720 94
2004-01-05 08:25:35 51°11.277 2°44.496 12.7 342 5.2 101720 94
2004-01-05 08:25:38 51°11.272 2°44.48 11 343 5.2 101720 94
2004-01-05 08:25:46 51°11.26 2°44.436 12.3 338 5.2 101720 94
2004-01-05 08:25:51 51°11.253 2°44.408 11.9 341 5.2 101720 94
2004-01-05 08:25:55 51°11.247 2°44.385 11.9 340 5.2 101730 94
2004-01-05 08:26:01 51°11.239 2°44.351 12.5 341 5.2 101730 94
2004-01-05 08:26:06 51°11.232 2°44.324 12.2 346 5.2 101730 94
2004-01-05 08:26:10 51°11.226 2°44.301 12.2 340 5.2 101730 94
2004-01-05 08:26:15 51°11.219 2°44.273 11.9 345 5.2 101730 94
2004-01-05 08:26:18 51°11.215 2°44.256 12.7 340 5.2 101730 94
2004-01-05 08:26:26 51°11.203 2°44.212 12.2 342 5.2 101730 94
2004-01-05 08:26:31 51°11.195 2°44.185 11.8 340 5.2 101730 94
2004-01-05 08:26:36 51°11.188 2°44.157 12.8 342 5.2 101730 94
2004-01-05 08:26:39 51°11.184 2°44.14 11.8 342 5.2 101730 94
2004-01-05 08:26:46 51°11.173 2°44.101 12 342 5.2 101720 94
2004-01-05 08:26:50 51°11.167 2°44.079 11.5 344 5.2 101720 94
2004-01-05 08:26:55 51°11.16 2°44.052 12.3 342 5.2 101720 94
2004-01-05 08:27:01 51°11.152 2°44.018 12 341 5.2 101720 94
2004-01-05 08:27:06 51°11.144 2°43.99 11.9 342 5.3 101720 94
2004-01-05 08:27:11 51°11.138 2°43.962 12.3 338 5.3 101720 94
2004-01-05 08:27:15 51°11.132 2°43.94 12.1 344 5.3 101710 94
2004-01-05 08:27:20 51°11.124 2°43.913 11.6 345 5.3 101710 94
2004-01-05 08:27:26 51°11.116 2°43.88 12.7 340 5.3 101730 94
2004-01-05 08:27:30 51°11.11 2°43.857 12.4 339 5.3 101730 94
2004-01-05 08:27:36 51°11.103 2°43.823 12.5 341 5.3 101720 94
2004-01-05 08:27:41 51°11.096 2°43.796 11.5 341 5.3 101720 94
2004-01-05 08:27:46 51°11.091 2°43.767 13.1 337 5.3 101720 94
2004-01-05 08:27:51 51°11.083 2°43.74 11.7 339 5.3 101720 94
2004-01-05 08:27:55 51°11.079 2°43.716 12.7 339 5.3 101710 94
2004-01-05 08:27:58 51°11.075 2°43.7 13.3 338 5.3 101710 94
2004-01-05 08:28:06 51°11.066 2°43.655 12.1 339 5.3 101710 94
2004-01-05 08:28:11 51°11.06 2°43.627 12.7 340 5.3 101710 94
2004-01-05 08:28:15 51°11.055 2°43.604 12.7 337 5.3 101710 94
2004-01-05 08:28:21 51°11.048 2°43.569 12.6 338 5.3 101710 94
2004-01-05 08:28:26 51°11.042 2°43.541 13.1 337 5.3 101720 94
2004-01-05 08:28:30 51°11.037 2°43.519 11.7 336 5.3 101720 94
2004-01-05 08:28:35 51°11.031 2°43.491 12.3 340 5.3 101720 94
2004-01-05 08:28:41 51°11.024 2°43.457 12.5 336 5.3 101720 94
2004-01-05 08:28:46 51°11.018 2°43.429 11.6 341 5.4 101720 94
2004-01-05 08:28:50 51°11.013 2°43.406 12.3 336 5.4 101720 94
2004-01-05 08:28:55 51°11.007 2°43.379 12.4 335 5.3 101710 94
2004-01-05 08:29:01 51°11 2°43.345 11.8 337 5.3 101710 94
2004-01-05 08:29:06 51°10.994 2°43.317 12.8 337 5.3 101720 94
2004-01-05 08:29:11 51°10.987 2°43.289 11.6 341 5.3 101720 94
2004-01-05 08:29:22 51°10.974 2°43.228 12.5 334 5.3 101720 94
2004-01-05 08:29:26 51°10.969 2°43.206 12.2 337 5.3 101720 94
2004-01-05 08:29:31 51°10.963 2°43.177 13.3 334 5.3 101720 94
2004-01-05 08:29:33 51°10.961 2°43.166 12.2 336 5.3 101710 94
2004-01-05 08:29:42 51°10.95 2°43.116 11.3 334 5.3 101710 94
2004-01-05 08:29:46 51°10.945 2°43.094 12.3 336 5.3 101720 94
2004-01-05 08:29:50 51°10.94 2°43.071 12.3 335 5.3 101720 94
2004-01-05 08:29:55 51°10.935 2°43.043 12.2 334 5.3 101720 94
2004-01-05 08:30:02 51°10.926 2°43.004 12.2 334 5.3 101720 94
2004-01-05 08:30:07 51°10.92 2°42.976 11.7 336 5.3 101710 94
2004-01-05 08:30:12 51°10.914 2°42.949 11.5 335 5.3 101710 94
2004-01-05 08:30:17 51°10.908 2°42.921 12.5 333 5.3 101710 94
2004-01-05 08:30:22 51°10.902 2°42.893 12.5 336 5.3 101710 94
2004-01-05 08:30:26 51°10.897 2°42.87 11.6 338 5.3 101720 94
2004-01-05 08:30:42 51°10.878 2°42.782 12.3 335 5.3 101720 94
2004-01-05 08:30:49 51°10.869 2°42.742 11.2 335 5.3 101720 94
2004-01-05 08:30:53 51°10.864 2°42.72 11.7 335 5.3 101720 94
2004-01-05 08:30:58 51°10.858 2°42.692 11.4 334 5.3 101720 94
2004-01-05 08:31:03 51°10.853 2°42.665 11.5 335 5.3 101710 94
2004-01-05 08:31:08 51°10.847 2°42.637 11.8 336 5.3 101710 94
2004-01-05 08:31:14 51°10.841 2°42.603 12.3 334 5.3 101710 94
2004-01-05 08:31:19 51°10.835 2°42.576 11.7 338 5.3 101710 94
2004-01-05 08:31:23 51°10.831 2°42.554 11.2 337 5.3 101710 94
2004-01-05 08:31:27 51°10.826 2°42.531 12.5 332 5.3 101710 94
2004-01-05 08:31:34 51°10.818 2°42.492 11.5 339 5.3 101720 94
2004-01-05 08:31:39 51°10.812 2°42.465 11.9 333 5.3 101720 94
2004-01-05 08:31:43 51°10.808 2°42.443 11.9 333 5.3 101710 94
2004-01-05 08:31:46 51°10.804 2°42.426 11.3 339 5.3 101710 94
2004-01-05 08:31:54 51°10.794 2°42.382 11.4 338 5.3 101710 94
2004-01-05 08:32:02 51°10.784 2°42.337 11.3 335 5.2 101710 94
2004-01-05 08:32:09 51°10.776 2°42.298 11.1 339 5.2 101710 94
2004-01-05 08:32:14 51°10.77 2°42.27 11.7 336 5.3 101720 94
2004-01-05 08:32:18 51°10.765 2°42.248 11.3 335 5.3 101720 94
2004-01-05 08:32:23 51°10.759 2°42.22 11.5 335 5.3 101720 94
2004-01-05 08:32:29 51°10.752 2°42.186 11.3 338 5.3 101720 94
2004-01-05 08:32:34 51°10.746 2°42.158 11.1 338 5.2 101720 94
2004-01-05 08:32:39 51°10.74 2°42.129 11.6 334 5.2 101720 94
2004-01-05 08:32:42 51°10.735 2°42.113 12.1 338 5.2 101720 94
2004-01-05 08:32:46 51°10.731 2°42.09 10.9 333 5.2 101720 94
2004-01-05 08:32:54 51°10.721 2°42.045 11.9 336 5.2 101720 94
2004-01-05 08:32:58 51°10.716 2°42.023 11.6 337 5.2 101720 94
2004-01-05 08:33:02 51°10.712 2°42.001 11 336 5.2 101730 94
2004-01-05 08:33:07 51°10.705 2°41.973 11.7 336 5.2 101730 94
2004-01-05 08:33:11 51°10.701 2°41.951 11.5 335 5.2 101720 94
2004-01-05 08:33:19 51°10.692 2°41.906 11.4 333 5.2 101720 94
2004-01-05 08:33:23 51°10.687 2°41.884 12.4 335 5.2 101710 94
2004-01-05 08:33:27 51°10.683 2°41.862 11.9 335 5.2 101710 94
2004-01-05 08:33:34 51°10.674 2°41.823 11.8 336 5.2 101720 94
2004-01-05 08:33:39 51°10.668 2°41.795 11.6 333 5.2 101720 94
2004-01-05 08:33:43 51°10.663 2°41.772 12 335 5.2 101720 94
2004-01-05 08:33:49 51°10.656 2°41.739 11.2 333 5.2 101720 94
2004-01-05 08:33:52 51°10.653 2°41.722 11.5 333 5.2 101720 94
2004-01-05 08:33:58 51°10.645 2°41.688 11.6 335 5.2 101720 94
2004-01-05 08:34:02 51°10.641 2°41.666 11.6 335 5.2 101710 94
2004-01-05 08:34:09 51°10.633 2°41.627 11.4 337 5.2 101710 94
2004-01-05 08:34:14 51°10.627 2°41.599 11.5 336 5.2 101710 94
2004-01-05 08:34:18 51°10.622 2°41.577 11.8 338 5.2 101710 94
2004-01-05 08:34:23 51°10.616 2°41.548 12 337 5.2 101710 94
2004-01-05 08:34:28 51°10.61 2°41.521 11 336 5.2 101710 94
2004-01-05 08:34:34 51°10.603 2°41.487 11.8 337 5.2 101720 94
2004-01-05 08:34:39 51°10.597 2°41.46 11.3 335 5.2 101720 94
2004-01-05 08:34:43 51°10.593 2°41.437 11.2 335 5.2 101720 94
2004-01-05 08:34:47 51°10.588 2°41.415 11 336 5.2 101720 94
2004-01-05 08:34:54 51°10.579 2°41.375 11.7 336 5.2 101710 94
2004-01-05 08:34:58 51°10.574 2°41.353 11.6 335 5.2 101710 94
2004-01-05 08:35:03 51°10.568 2°41.325 12.1 334 5.2 101710 94
2004-01-05 08:35:06 51°10.564 2°41.309 11.1 337 5.2 101710 94
2004-01-05 08:35:14 51°10.555 2°41.265 12 336 5.2 101720 94
2004-01-05 08:35:18 51°10.55 2°41.242 12 333 5.2 101720 94
2004-01-05 08:35:23 51°10.544 2°41.215 11.8 336 5.2 101720 94
2004-01-05 08:35:29 51°10.537 2°41.181 11.4 336 5.2 101720 94
2004-01-05 08:35:34 51°10.531 2°41.154 11.4 337 5.2 101720 94
2004-01-05 08:35:39 51°10.525 2°41.126 11.6 336 5.2 101720 94
2004-01-05 08:35:43 51°10.52 2°41.104 11.7 334 5.2 101720 94
2004-01-05 08:35:49 51°10.513 2°41.07 11.9 333 5.2 101720 94
2004-01-05 08:35:54 51°10.507 2°41.042 12.4 334 5.2 101710 94
2004-01-05 08:35:59 51°10.5 2°41.014 11.1 338 5.2 101710 94
2004-01-05 08:36:04 51°10.495 2°40.986 12 334 5.3 101710 94
2004-01-05 08:36:09 51°10.489 2°40.958 11.6 335 5.3 101710 94
2004-01-05 08:36:14 51°10.482 2°40.93 10.9 339 5.2 101710 94
2004-01-05 08:36:19 51°10.476 2°40.902 11.6 337 5.2 101710 94
2004-01-05 08:36:22 51°10.472 2°40.886 12 340 5.2 101710 94
2004-01-05 08:36:29 51°10.464 2°40.847 11.5 336 5.2 101710 94
2004-01-05 08:36:34 51°10.457 2°40.82 11.9 339 5.2 101720 94
2004-01-05 08:36:38 51°10.453 2°40.797 12.1 336 5.2 101720 94
2004-01-05 08:36:43 51°10.447 2°40.77 12.1 337 5.2 101720 94
2004-01-05 08:36:49 51°10.44 2°40.737 11.9 335 5.2 101720 94
2004-01-05 08:36:53 51°10.436 2°40.715 12.5 335 5.3 101720 94
2004-01-05 08:36:59 51°10.428 2°40.682 11.6 338 5.3 101720 94
2004-01-05 08:37:02 51°10.425 2°40.665 10.9 338 5.3 101720 94
2004-01-05 08:37:09 51°10.416 2°40.626 12 339 5.3 101720 94
2004-01-05 08:37:14 51°10.41 2°40.599 11.5 336 5.2 101720 94
2004-01-05 08:37:18 51°10.406 2°40.576 12.4 335 5.2 101720 94
2004-01-05 08:37:23 51°10.4 2°40.549 10.9 335 5.3 101720 94
2004-01-05 08:37:28 51°10.393 2°40.521 11.7 336 5.3 101720 94
2004-01-05 08:37:34 51°10.386 2°40.487 11.1 336 5.3 101720 94
2004-01-05 08:37:39 51°10.38 2°40.46 11.6 332 5.3 101720 94
2004-01-05 08:37:42 51°10.377 2°40.443 12.3 337 5.3 101720 94
2004-01-05 08:37:49 51°10.368 2°40.403 11.9   5.3 101720 94
2004-01-05 08:37:54 51°10.362 2°40.373 11.8 333 5.3 101710 94
2004-01-05 08:37:59 51°10.356 2°40.345 12.5 335 5.3 101710 94
2004-01-05 08:38:03 51°10.351 2°40.323 12.3 337 5.3 101710 94
2004-01-05 08:38:07 51°10.347 2°40.301 11.2 334 5.3 101710 94
2004-01-05 08:38:14 51°10.338 2°40.262 11.4 339 5.3 101710 94
2004-01-05 08:38:18 51°10.335 2°40.242 11.9 331 5.3 101710 94
2004-01-05 08:38:23 51°10.329 2°40.215 11.4 336 5.3 101710 94
2004-01-05 08:38:29 51°10.323 2°40.182 11.9 333 5.3 101710 94
2004-01-05 08:38:34 51°10.317 2°40.154 12.2 334 5.3 101710 94
2004-01-05 08:38:39 51°10.311 2°40.127 12.4 336 5.3 101710 94
2004-01-05 08:38:43 51°10.306 2°40.104 12.2 336 5.3 101710 94
2004-01-05 08:38:46 51°10.302 2°40.087 11.4 336 5.3 101710 94
2004-01-05 08:38:54 51°10.292 2°40.042 11.4 336 5.3 101710 94
2004-01-05 08:38:58 51°10.287 2°40.019 12 333 5.3 101710 94
2004-01-05 08:39:03 51°10.281 2°39.991 12 334 5.3 101710 94
2004-01-05 08:39:07 51°10.277 2°39.969 11.3 335 5.3 101710 94
2004-01-05 08:39:14 51°10.269 2°39.931 11.7 339 5.3 101720 94
2004-01-05 08:39:22 51°10.26 2°39.886 11.3 337 5.3 101710 94
2004-01-05 08:39:29 51°10.251 2°39.847 11.7 335 5.3 101710 94
2004-01-05 08:39:33 51°10.247 2°39.825 11.9 335 5.3 101710 94
2004-01-05 08:39:38 51°10.241 2°39.797 11.6 337 5.3 101710 94
2004-01-05 08:39:42 51°10.238 2°39.775 12.4 333 5.3 101720 94
2004-01-05 08:39:49 51°10.23 2°39.737 12 337 5.3 101720 94
2004-01-05 08:39:54 51°10.225 2°39.709 11.7 337 5.3 101710 94
2004-01-05 08:39:58 51°10.22 2°39.687 11.5 336 5.3 101710 94
2004-01-05 08:40:03 51°10.214 2°39.658 11.2 335 5.3 101710 94
2004-01-05 08:40:07 51°10.209 2°39.636 10.6 336 5.3 101710 94
2004-01-05 08:40:14 51°10.201 2°39.597 11 337 5.3 101710 94
2004-01-05 08:40:19 51°10.196 2°39.57 11.5 334 5.3 101710 94
2004-01-05 08:40:23 51°10.192 2°39.548 11 334 5.3 101710 94
2004-01-05 08:40:26 51°10.188 2°39.531 10.8 337 5.3 101710 94
2004-01-05 08:40:34 51°10.179 2°39.486 11 335 5.3 101710 94
2004-01-05 08:40:39 51°10.173 2°39.458 11.2 336 5.3 101710 94
2004-01-05 08:40:42 51°10.169 2°39.441 10.9 334 5.3 101710 94
2004-01-05 08:40:49 51°10.161 2°39.402 11.5 338 5.3 101710 94
2004-01-05 08:40:54 51°10.154 2°39.375 11.3 338 5.3 101710 94
2004-01-05 08:40:58 51°10.15 2°39.352 11.9 337 5.3 101710 94
2004-01-05 08:41:02 51°10.145 2°39.33 10.9 338 5.3 101710 94
2004-01-05 08:41:09 51°10.136 2°39.291 10.9 337 5.3 101710 94
2004-01-05 08:41:14 51°10.13 2°39.263 10.5 341 5.3 101710 94
2004-01-05 08:41:18 51°10.126 2°39.241 11.7 337 5.3 101710 94
2004-01-05 08:41:23 51°10.12 2°39.214 11.4 335 5.3 101720 94
2004-01-05 08:41:29 51°10.113 2°39.18 11.6 337 5.3 101720 94
2004-01-05 08:41:33 51°10.109 2°39.158 11.7 338 5.3 101710 94
2004-01-05 08:41:38 51°10.103 2°39.13 12.1 336 5.3 101710 94
2004-01-05 08:41:43 51°10.097 2°39.103 11 339 5.3 101710 94
2004-01-05 08:41:47 51°10.093 2°39.08 12.4 334 5.3 101710 94
2004-01-05 08:41:53 51°10.086 2°39.047 11.4 337 5.4 101700 94
2004-01-05 08:41:58 51°10.081 2°39.019 11.5 334 5.4 101700 94
2004-01-05 08:42:03 51°10.075 2°38.992 11.4 340 5.4 101710 94
2004-01-05 08:42:06 51°10.072 2°38.975 10.7 337 5.4 101710 94
2004-01-05 08:42:12 51°10.065 2°38.943 11.1 341 5.4 101710 94
2004-01-05 08:42:19 51°10.057 2°38.903 11.7 338 5.4 101710 94
2004-01-05 08:42:23 51°10.052 2°38.881 11.5 339 5.4 101710 94
2004-01-05 08:42:29 51°10.045 2°38.848 11.5 338 5.4 101710 94
2004-01-05 08:42:34 51°10.04 2°38.82 11.3 335 5.4 101710 94
2004-01-05 08:42:39 51°10.034 2°38.792 11.8 338 5.4 101710 94
2004-01-05 08:42:42 51°10.03 2°38.776 11.9 337 5.4 101710 94
2004-01-05 08:42:47 51°10.025 2°38.748 11.2 340 5.4 101710 94
2004-01-05 08:42:54 51°10.017 2°38.709 11.5 336 5.4 101710 94
2004-01-05 08:42:59 51°10.011 2°38.682 11.1 339 5.4 101710 94
2004-01-05 08:43:04 51°10.005 2°38.654 11.3 338 5.4 101710 94
2004-01-05 08:43:09 51°9.999 2°38.626 11.5 338 5.4 101710 94
2004-01-05 08:43:14 51°9.994 2°38.598 12 337 5.4 101710 94
2004-01-05 08:43:18 51°9.99 2°38.576 11.2 336 5.4 101710 94
2004-01-05 08:43:24 51°9.983 2°38.543 11.2 336 5.4 101710 94
2004-01-05 08:43:29 51°9.977 2°38.515 12.4 337 5.4 101710 94
2004-01-05 08:43:34 51°9.972 2°38.487 11.8 336 5.4 101710 94
2004-01-05 08:43:38 51°9.967 2°38.465 11.7 337 5.4 101710 94
2004-01-05 08:43:43 51°9.961 2°38.438 11.2 338 5.4 101700 94
2004-01-05 08:43:48 51°9.956 2°38.41 11.3 338 5.4 101700 94
2004-01-05 08:43:54 51°9.949 2°38.377 11.8 336 5.4 101700 94
2004-01-05 08:43:58 51°9.944 2°38.355 11.9 338 5.4 101700 94
2004-01-05 08:44:02 51°9.94 2°38.333 11.7 336 5.4 101700 94
2004-01-05 08:44:09 51°9.932 2°38.294 11.9 339 5.4 101700 94
2004-01-05 08:44:13 51°9.928 2°38.271 11.7 334 5.4 101710 94
2004-01-05 08:44:18 51°9.921 2°38.244 11.7 341 5.4 101710 94
2004-01-05 08:44:23 51°9.916 2°38.216 11 337 5.4 101710 94
2004-01-05 08:44:28 51°9.911 2°38.189 11 336 5.4 101710 94
2004-01-05 08:44:34 51°9.904 2°38.156 11.2 338 5.4 101710 94
2004-01-05 08:44:39 51°9.898 2°38.128 11.2 335 5.4 101710 94
2004-01-05 08:44:43 51°9.893 2°38.106 11.6 335 5.4 101710 94
2004-01-05 08:44:49 51°9.887 2°38.072 12.9 338 5.4 101710 94
2004-01-05 08:44:52 51°9.883 2°38.056 11.8 336 5.5 101710 94
2004-01-05 08:44:58 51°9.877 2°38.022 11.7 335 5.5 101710 94
2004-01-05 08:45:02 51°9.872 2°38.001 11.6 336 5.5 101700 94
2004-01-05 08:45:08 51°9.865 2°37.967 11.8 336 5.5 101700 94
2004-01-05 08:45:14 51°9.859 2°37.934 11.6 336 5.5 101720 94
2004-01-05 08:45:35 51°9.836 2°37.818 11.3 338 5.5 101700 94
2004-01-05 08:45:42 51°9.827 2°37.78 12.3 339 5.5 101700 94
2004-01-05 08:45:46 51°9.824 2°37.758 11.9 336 5.5 101710 94
2004-01-05 08:45:51 51°9.817 2°37.731 11.5 341 5.5 101710 94
2004-01-05 08:45:57 51°9.811 2°37.698 12.8 337 5.5 101710 94
2004-01-05 08:46:02 51°9.805 2°37.67 12.2 339 5.5 101710 94
2004-01-05 08:46:06 51°9.802 2°37.648 12.6 335 5.5 101700 94
2004-01-05 08:46:11 51°9.795 2°37.621 11.8 338 5.5 101700 94
2004-01-05 08:46:15 51°9.792 2°37.599 12.7 336 5.5 101700 94
2004-01-05 08:46:22 51°9.783 2°37.56 11.5 335 5.5 101700 94
2004-01-05 08:46:26 51°9.779 2°37.538 11.8 334 5.5 101700 94
2004-01-05 08:46:31 51°9.774 2°37.511 12.3 337 5.5 101700 94
2004-01-05 08:46:35 51°9.769 2°37.489 12 337 5.5 101700 94
2004-01-05 08:46:42 51°9.762 2°37.45 12.2 336 5.5 101700 94
2004-01-05 08:46:46 51°9.758 2°37.428 12.2 338 5.5 101700 94
2004-01-05 08:46:51 51°9.752 2°37.401 12.5 338 5.5 101700 94
2004-01-05 08:46:56 51°9.747 2°37.373 12.2 335 5.5 101710 94
2004-01-05 08:47:02 51°9.74 2°37.34 12 336 5.5 101710 94
2004-01-05 08:47:06 51°9.736 2°37.318 12.1 338 5.5 101700 94
2004-01-05 08:47:12 51°9.729 2°37.285 13.1 337 5.5 101700 94
2004-01-05 08:47:17 51°9.724 2°37.258 12.8 336 5.5 101700 94
2004-01-05 08:47:22 51°9.718 2°37.23 12 337 5.5 101700 94
2004-01-05 08:47:27 51°9.713 2°37.203 12.3 338 5.5 101710 94
2004-01-05 08:47:32 51°9.707 2°37.176 13.1 335 5.5 101710 94
2004-01-05 08:47:37 51°9.701 2°37.148 12.7 335 5.5 101710 94
2004-01-05 08:47:42 51°9.696 2°37.121 12.2 335 5.5 101710 94
2004-01-05 08:47:47 51°9.69 2°37.094 12.6 335 5.5 101700 94
2004-01-05 08:47:51 51°9.686 2°37.071 13.2 335 5.5 101700 94
2004-01-05 08:47:57 51°9.679 2°37.039 11.5 336 5.5 101710 94
2004-01-05 08:48:02 51°9.674 2°37.012 12.2 336 5.5 101710 94
2004-01-05 08:48:07 51°9.668 2°36.984 11.6 336 5.5 101700 94
2004-01-05 08:48:11 51°9.664 2°36.962 12.2 337 5.5 101700 94
2004-01-05 08:48:17 51°9.657 2°36.93 12.3 337 5.5 101710 93
2004-01-05 08:48:22 51°9.651 2°36.903 11.4 339 5.5 101710 93
2004-01-05 08:48:26 51°9.647 2°36.881 12 336 5.5 101710 93
2004-01-05 08:48:32 51°9.64 2°36.848 11.6 335 5.5 101710 93
2004-01-05 08:48:35 51°9.637 2°36.831 11 336 5.5 101710 93
2004-01-05 08:48:42 51°9.63 2°36.793 10.9 333 5.5 101710 93
2004-01-05 08:48:46 51°9.626 2°36.771 11.9 335 5.5 101700 93
2004-01-05 08:48:52 51°9.619 2°36.738 11.3 336 5.5 101700 93
2004-01-05 08:48:57 51°9.613 2°36.711 11.3 335 5.5 101720 93
2004-01-05 08:49:02 51°9.608 2°36.684 11.4 334 5.5 101720 93
2004-01-05 08:49:14 51°9.595 2°36.617 11.4 334 5.5 101710 93
2004-01-05 08:49:21 51°9.588 2°36.579 12.5 337 5.5 101710 93
2004-01-05 08:49:26 51°9.582 2°36.551 11.9 335 5.5 101710 93
2004-01-05 08:49:31 51°9.578 2°36.523 11.8 334 5.5 101710 93
2004-01-05 08:49:35 51°9.573 2°36.502 11.1 333 5.5 101710 93
2004-01-05 08:49:41 51°9.567 2°36.468 13 335 5.5 101710 93
2004-01-05 08:49:46 51°9.561 2°36.441 13.2 336 5.5 101710 93
2004-01-05 08:49:50 51°9.558 2°36.419 11.7 336 5.5 101710 93
2004-01-05 08:49:55 51°9.552 2°36.391 12.1 336 5.5 101720 93
2004-01-05 08:50:00 51°9.547 2°36.364 12.1 334 5.5 101720 93
2004-01-05 08:50:06 51°9.541 2°36.331 12.2 332 5.5 101710 93
2004-01-05 08:50:11 51°9.536 2°36.303 12 334 5.5 101710 93
2004-01-05 08:50:14 51°9.533 2°36.287 11.4 335 5.5 101710 93
2004-01-05 08:50:19 51°9.527 2°36.259 11.4 336 5.5 101710 93
2004-01-05 08:50:26 51°9.52 2°36.221 12.6 333 5.5 101710 93
2004-01-05 08:50:30 51°9.516 2°36.199 10.8 337 5.5 101710 93
2004-01-05 08:50:35 51°9.511 2°36.171 11.1 333 5.5 101710 93
2004-01-05 08:50:41 51°9.504 2°36.139 12.2 336 5.5 101710 93
2004-01-05 08:50:46 51°9.499 2°36.111 12.1 335 5.5 101710 93
2004-01-05 08:50:50 51°9.495 2°36.089 11.2 333 5.5 101710 93
2004-01-05 08:50:54 51°9.491 2°36.067 12.1 334 5.5 101710 93
2004-01-05 08:50:58 51°9.486 2°36.045 11.7 335 5.5 101710 93
2004-01-05 08:51:06 51°9.478 2°36.003 11.3 334 5.5 101720 93
2004-01-05 08:51:10 51°9.475 2°35.982 11.4 334 5.5 101720 93
2004-01-05 08:51:14 51°9.471 2°35.962 11.8 333 5.5 101720 93
2004-01-05 08:51:35 51°9.448 2°35.865 11.5 339 5.5 101740 93
2004-01-05 08:51:42 51°9.439 2°35.836 12.4 339 5.5 101740 93
2004-01-05 08:51:46 51°9.434 2°35.822 11.9 336 5.5 101800 93
2004-01-05 08:51:51 51°9.427 2°35.804 4.4 340 5.5 101800 93
2004-01-05 08:51:55 51°9.422 2°35.791 11.1 340 5.5 101740 93
2004-01-05 08:52:02 51°9.412 2°35.769 12 338 5.5 101740 93
2004-01-05 08:52:06 51°9.407 2°35.756 11.4 338 5.5 101770 93
2004-01-05 08:52:11 51°9.399 2°35.741 10.7 335 5.5 101770 93
2004-01-05 08:52:16 51°9.393 2°35.725 10.8 334 5.5 101800 93
2004-01-05 08:52:22 51°9.387 2°35.705 9.5 331 5.5 101800 93
2004-01-05 08:52:26 51°9.384 2°35.691 9.9 328 5.5 101750 93
2004-01-05 08:52:31 51°9.381 2°35.674 9.9 325 5.5 101750 93
2004-01-05 08:52:34 51°9.379 2°35.664 9.8 325 5.5 101760 93
2004-01-05 08:52:42 51°9.375 2°35.636 9.4 326 5.5 101760 93
2004-01-05 08:52:47 51°9.373 2°35.62 9.9 327 5.5 101760 93
2004-01-05 08:52:51 51°9.371 2°35.608 8.6 325 5.5 101760 93
2004-01-05 08:52:57 51°9.368 2°35.591 9.7 319 5.5 101750 93
2004-01-05 08:53:02 51°9.366 2°35.578 8.2 324 5.5 101750 93
2004-01-05 08:53:07 51°9.364 2°35.566 9 325 5.5 101760 93
2004-01-05 08:53:11 51°9.362 2°35.557 9.1 329 5.5 101760 93
2004-01-05 08:53:17 51°9.36 2°35.545 10.5 323 5.5 101780 93
2004-01-05 08:53:22 51°9.357 2°35.535 9.2 321 5.5 101780 93
2004-01-05 08:53:27 51°9.355 2°35.526 8.5 326 5.5 101780 93
2004-01-05 08:53:32 51°9.353 2°35.518 8.2 333 5.5 101780 93
2004-01-05 08:53:37 51°9.351 2°35.51 8.6 328 5.5 101780 93
2004-01-05 08:53:42 51°9.348 2°35.502 8.1 332 5.5 101780 93
2004-01-05 08:53:47 51°9.346 2°35.496 8.3 330 5.5 101780 93
2004-01-05 08:53:50 51°9.345 2°35.493 8.6 322 5.5 101780 93
2004-01-05 08:53:57 51°9.343 2°35.486 8.3 325 5.5 101780 93
2004-01-05 08:54:02 51°9.342 2°35.482 7.7 317 5.5 101780 93
2004-01-05 08:54:07 51°9.342 2°35.479 7.5 230 5.5 101780 93
2004-01-05 08:54:11 51°9.341 2°35.477 7.4 307 5.5 101780 93
2004-01-05 08:54:14 51°9.341 2°35.475 8.2 303 5.5 101770 93
2004-01-05 08:54:22 51°9.342 2°35.472 7.9 302 5.5 101770 93
2004-01-05 08:54:27 51°9.342 2°35.471 8.7 294 5.5 101760 93
2004-01-05 08:54:31 51°9.342 2°35.469 9 292 5.5 101760 93
2004-01-05 08:54:37 51°9.343 2°35.467 7.8 293 5.5 101760 93
2004-01-05 08:54:42 51°9.344 2°35.465 8.1 286 5.5 101760 93
2004-01-05 08:54:46 51°9.345 2°35.464 8.1 288 5.5 101770 93
2004-01-05 08:54:52 51°9.346 2°35.463 7.2 282 5.5 101770 93
2004-01-05 08:54:57 51°9.348 2°35.461 7.8 278 5.5 101800 93
2004-01-05 08:55:33 51°9.358 2°35.449 8.5 269 -999 -999 -999
2004-01-05 08:55:38 51°9.36 2°35.448 8 272 5.5 101780 93
2004-01-05 08:55:42 51°9.361 2°35.446 7.7 273 5.5 101780 93
2004-01-05 08:55:47 51°9.363 2°35.445 7.9 282 5.5 101770 93
2004-01-05 08:55:53 51°9.365 2°35.443 8.5 268 5.5 101770 93
2004-01-05 08:55:58 51°9.367 2°35.441 7.6 274 5.5 101790 93
2004-01-05 08:56:03 51°9.368 2°35.439 8.1 279 5.5 101790 93
2004-01-05 08:56:07 51°9.37 2°35.438 8.2 276 5.5 101780 93
2004-01-05 08:56:12 51°9.371 2°35.436 7 273 5.5 101780 93
2004-01-05 08:56:18 51°9.373 2°35.434 8.4 267 5.5 101790 93
2004-01-05 08:56:22 51°9.375 2°35.432 8.1 278 5.5 101790 93
2004-01-05 08:56:27 51°9.377 2°35.431 8.2 273 5.5 101780 93
2004-01-05 08:56:32 51°9.378 2°35.429 8.7 270 5.5 101780 93
2004-01-05 08:56:38 51°9.381 2°35.427 7.9 276 5.5 101780 93
2004-01-05 08:56:42 51°9.382 2°35.425 8.2 276 5.5 101780 93
2004-01-05 08:56:48 51°9.384 2°35.423 7.8 275 5.5 101790 93
2004-01-05 08:56:53 51°9.386 2°35.421 7.4 278 5.5 101790 93
2004-01-05 08:57:11 51°9.392 2°35.416 9 273 5.5 101780 93
2004-01-05 08:57:18 51°9.395 2°35.414 7 272 5.5 101780 93
2004-01-05 08:57:23 51°9.396 2°35.412 6.6 278 5.5 101780 93
2004-01-05 08:57:26 51°9.397 2°35.411 7.8 272 5.5 101780 93
2004-01-05 08:57:30 51°9.399 2°35.409 7.5 270 5.5 101780 93
2004-01-05 08:57:38 51°9.402 2°35.407 8.8 269 5.5 101780 93
2004-01-05 08:57:42 51°9.403 2°35.406 7.7 271 5.5 101780 93
2004-01-05 08:57:46 51°9.404 2°35.405 7.6 273 5.5 101790 93
2004-01-05 08:57:51 51°9.406 2°35.403 7.2 270 5.5 101790 93
2004-01-05 08:57:58 51°9.408 2°35.401 7.8 271 5.5 101780 93
2004-01-05 08:58:03 51°9.41 2°35.4 8.7 274 5.5 101780 93
2004-01-05 08:58:07 51°9.411 2°35.398 6.9 269 5.5 101790 93
2004-01-05 08:58:12 51°9.413 2°35.397 7 280 5.5 101790 93
2004-01-05 08:58:18 51°9.415 2°35.395 7.6 272 5.5 101790 93
2004-01-05 08:58:23 51°9.417 2°35.394 7.3 267 5.5 101790 93
2004-01-05 08:58:27 51°9.418 2°35.393 7.7 272 5.5 101780 93
2004-01-05 08:58:32 51°9.42 2°35.391 8.1 276 5.5 101780 93
2004-01-05 08:58:38 51°9.422 2°35.389 8.1 271 5.5 101780 93
2004-01-05 08:58:43 51°9.424 2°35.388 6.8 277 5.5 101780 93
2004-01-05 08:58:47 51°9.425 2°35.387 7.1 265 5.5 101810 93
2004-01-05 08:58:53 51°9.428 2°35.385 7.1 271 5.5 101810 93
2004-01-05 08:58:58 51°9.429 2°35.384 6.5 272 5.5 101790 93
2004-01-05 08:59:03 51°9.431 2°35.383 7.3 273 5.5 101790 93
2004-01-05 08:59:07 51°9.432 2°35.382 6.9 272 5.5 101780 93
2004-01-05 08:59:12 51°9.434 2°35.381 7.3 273 5.5 101780 93
2004-01-05 08:59:18 51°9.436 2°35.379 8.5 266 5.5 101780 93
2004-01-05 08:59:23 51°9.438 2°35.378 8.1 268 5.5 101780 93
2004-01-05 08:59:28 51°9.44 2°35.376 6.7 272 5.5 101810 93
2004-01-05 08:59:31 51°9.441 2°35.376 8.7 272 5.5 101810 93
2004-01-05 08:59:38 51°9.444 2°35.374 7.5 267 5.5 101780 93
2004-01-05 08:59:43 51°9.446 2°35.373 6.8 264 5.5 101780 93
2004-01-05 08:59:47 51°9.447 2°35.372 6.8 276 5.5 101810 93
2004-01-05 08:59:53 51°9.45 2°35.371 7.4 266 5.5 101810 93
2004-01-05 08:59:58 51°9.452 2°35.37 6.7 261 5.5 101780 93
2004-01-05 09:00:03 51°9.454 2°35.369 6.2 260 5.5 101780 93
2004-01-05 09:00:07 51°9.455 2°35.368 6.5 261 5.5 101790 93
2004-01-05 09:00:13 51°9.458 2°35.367 7 261 5.5 101790 93
2004-01-05 09:00:18 51°9.46 2°35.366 6.9 260 5.5 101780 93
2004-01-05 09:00:22 51°9.462 2°35.365 6.5 264 5.5 101780 93
2004-01-05 09:00:27 51°9.464 2°35.364 6.7 265 5.5 101790 93
2004-01-05 09:00:33 51°9.466 2°35.363 8 271 5.5 101790 93
2004-01-05 09:00:38 51°9.469 2°35.362 7.3 270 5.5 101780 93
2004-01-05 09:00:42 51°9.47 2°35.361 7.1 263 5.5 101780 93
2004-01-05 09:00:47 51°9.472 2°35.36 7 263 5.5 101790 93
2004-01-05 09:00:53 51°9.475 2°35.359 6.6 263 5.5 101790 93
2004-01-05 09:00:58 51°9.477 2°35.358 7.5 264 5.5 101790 93
2004-01-05 09:01:03 51°9.48 2°35.357 5.9 260 5.5 101790 93
2004-01-05 09:01:06 51°9.481 2°35.356 6.1 261 5.5 101780 93
2004-01-05 09:01:13 51°9.484 2°35.355 6.1 259 5.5 101780 93
2004-01-05 09:01:18 51°9.486 2°35.354 5.5 261 5.5 101780 93
2004-01-05 09:01:22 51°9.488 2°35.353 6.4 265 5.5 101780 93
2004-01-05 09:01:27 51°9.49 2°35.352 5.9 263 5.5 101780 93
2004-01-05 09:01:33 51°9.493 2°35.351 7.5 267 5.5 101780 93
2004-01-05 09:01:38 51°9.495 2°35.35 6.8 265 5.5 101780 93
2004-01-05 09:01:43 51°9.498 2°35.349 6.7 263 5.5 101780 93
2004-01-05 09:01:47 51°9.5 2°35.349 4.2 255 5.5 101780 93
2004-01-05 09:01:52 51°9.502 2°35.348 6 260 5.5 101780 93
2004-01-05 09:01:58 51°9.505 2°35.347 5.8 261 5.5 101780 93
2004-01-05 09:02:03 51°9.507 2°35.346 6.9 265 5.5 101780 93
2004-01-05 09:02:06 51°9.508 2°35.346 5.3 258 5.5 101780 93
2004-01-05 09:02:11 51°9.511 2°35.345 5.5 259 5.5 101780 93
2004-01-05 09:02:18 51°9.514 2°35.344 5.6 262 5.5 101810 93
2004-01-05 09:02:22 51°9.516 2°35.343 6.7 264 5.5 101810 93
2004-01-05 09:02:27 51°9.518 2°35.343 6.2 268 5.5 101790 93
2004-01-05 09:02:32 51°9.52 2°35.342 7.8 262 5.5 101790 93
2004-01-05 09:02:38 51°9.523 2°35.341 5.2 255 5.5 101790 93
2004-01-05 09:02:43 51°9.525 2°35.34 5.2 255 5.5 101790 93
2004-01-05 09:02:48 51°9.527 2°35.34 5.2 257 5.5 101790 93
2004-01-05 09:02:53 51°9.53 2°35.339 6.2 260 5.5 101790 93
2004-01-05 09:02:58 51°9.532 2°35.338 6 261 5.5 101790 93
2004-01-05 09:03:03 51°9.534 2°35.337 5.2 257 5.5 101790 93
2004-01-05 09:03:08 51°9.537 2°35.337 5.9 259 5.5 101790 93
2004-01-05 09:03:13 51°9.539 2°35.336 5.2 250 5.5 101790 93
2004-01-05 09:03:18 51°9.541 2°35.335 7.2 262 5.5 101790 93
2004-01-05 09:03:23 51°9.543 2°35.334 4.1 255 5.5 101790 93
2004-01-05 09:03:28 51°9.545 2°35.333 5.3 258 5.5 101800 93
2004-01-05 09:03:33 51°9.548 2°35.332 7 261 5.5 101800 93
2004-01-05 09:03:38 51°9.55 2°35.332 7.2 264 5.5 101790 93
2004-01-05 09:03:43 51°9.552 2°35.331 6.7 261 5.5 101790 93
2004-01-05 09:03:47 51°9.554 2°35.33 6.2 261 5.5 101790 93
2004-01-05 09:03:51 51°9.556 2°35.33 4.3 255 5.5 101790 93
2004-01-05 09:03:58 51°9.56 2°35.329 5.8 260 5.5 101790 93
2004-01-05 09:04:03 51°9.562 2°35.328 6.1 260 5.5 101790 93
2004-01-05 09:04:07 51°9.564 2°35.328 4.8 257 5.5 101790 93
2004-01-05 09:04:11 51°9.566 2°35.327 4.4 254 5.5 101790 93
2004-01-05 09:04:18 51°9.569 2°35.326 5.2 253 5.5 101800 93
2004-01-05 09:04:23 51°9.571 2°35.325 5.9 263 5.5 101800 93
2004-01-05 09:04:27 51°9.573 2°35.325 5.5 257 5.5 101790 93
2004-01-05 09:04:33 51°9.576 2°35.324 5.2 258 5.5 101790 93
2004-01-05 09:04:38 51°9.578 2°35.323 5.2 260 5.5 101800 93
2004-01-05 09:04:42 51°9.58 2°35.323 5 259 5.5 101800 93
2004-01-05 09:04:47 51°9.583 2°35.322 4.6 258 5.5 101810 93
2004-01-05 09:04:53 51°9.585 2°35.322 6.1 260 5.5 101810 93
2004-01-05 09:04:58 51°9.588 2°35.321 5.2 257 5.5 101780 93
2004-01-05 09:05:02 51°9.589 2°35.32 4.7 254 5.5 101780 93
2004-01-05 09:05:06 51°9.591 2°35.32 4.5 257 5.5 101790 93
2004-01-05 09:05:13 51°9.595 2°35.319 6.4 261 5.5 101790 93
2004-01-05 09:05:18 51°9.597 2°35.318 4.9 260 5.5 101780 93
2004-01-05 09:05:23 51°9.599 2°35.318 7.5 265 5.5 101780 93
2004-01-05 09:05:27 51°9.601 2°35.317 7.6 262 5.5 101790 93
2004-01-05 09:05:33 51°9.604 2°35.316 6.3 262 5.5 101790 93
2004-01-05 09:05:38 51°9.606 2°35.316 6.1 260 5.5 101790 93
2004-01-05 09:05:42 51°9.608 2°35.315 5 260 5.5 101790 93
2004-01-05 09:05:47 51°9.61 2°35.314 6.2 261 5.5 101790 93
2004-01-05 09:05:53 51°9.613 2°35.314 6.2 261 5.5 101790 93
2004-01-05 09:05:58 51°9.615 2°35.313 5.4 258 5.5 101790 93